Iberica Hav — C6YI3 — position and weather

sailwx.info

Track history (hours):
 
Tides and Currents Weather Stations Pressure Air Temp Water Temp Dewpoint Dewpoint Depression Visibility Wind Speed Wind Dir Waves Ship Positions

Iberica Hav

Last reported at 2015-Jan-28 23:17 UTC. Time now 2015-Jan-29 00:13 UTC.
Position N 38°40' W 009°23'.

Length 88 m; draft 3.6 m.

Type: Cargo ship. MMSI: 311034400.

Date/timePositionNaut miles runAvg speedWind from/ knotsBaromVisibWave heightAir tempDewpointWater temp
2015-Jan-28 23:17N 38°40' W 009°23'0 0.0
2015-Jan-28 22:08N 38°40' W 009°23'0 0.0
2015-Jan-28 21:26N 38°40' W 009°23'0 0.0
2015-Jan-28 20:32N 38°40' W 009°23'0 0.0
2015-Jan-28 19:23N 38°40' W 009°23'0 0.0
2015-Jan-28 18:29N 38°40' W 009°23'0 0.0
2015-Jan-28 17:29N 38°40' W 009°23'0 0.0
2015-Jan-28 16:29N 38°40' W 009°23'0 0.0
2015-Jan-28 15:23N 38°40' W 009°23'0 0.0
2015-Jan-28 14:29N 38°40' W 009°23'0 0.0
2015-Jan-28 13:08N 38°40' W 009°23'0 0.0
2015-Jan-28 11:26N 38°40' W 009°23'0 0.0
2015-Jan-28 10:14N 38°40' W 009°23'0 0.0
2015-Jan-28 09:23N 38°40' W 009°23'0 0.0
2015-Jan-28 08:29N 38°40' W 009°23'0 0.0
2015-Jan-28 07:29N 38°40' W 009°23'0 0.0
2015-Jan-28 06:11N 38°40' W 009°23'0 0.0
2015-Jan-28 05:23N 38°40' W 009°23'0 0.0
2015-Jan-28 04:29N 38°40' W 009°23'0 0.0
2015-Jan-28 03:29N 38°40' W 009°23'0 0.0
2015-Jan-28 02:29N 38°40' W 009°23'0 0.0
2015-Jan-28 01:29N 38°40' W 009°23'0 0.0
2015-Jan-28 00:29N 38°40' W 009°23'1 0.6
2015-Jan-27 23:33N 38°40' W 009°24'8 7.7
2015-Jan-27 22:33N 38°37' W 009°33'8 7.8
2015-Jan-27 21:33N 38°36' W 009°43'8 7.7
2015-Jan-27 20:33N 38°36' W 009°53'  
2015-Jan-23 18:26N 51°58' W 006°16'5 6.2
2015-Jan-23 17:33N 52°03' W 006°14'7 7.1
2015-Jan-23 16:33N 52°10' W 006°09'9 8.9
2015-Jan-23 15:33N 52°18' W 006°05'10 9.7
2015-Jan-23 14:33N 52°28' W 006°01'115 7.2
2015-Jan-22 22:31N 54°20' W 005°23'9 9.6
2015-Jan-22 21:33N 54°29' W 005°24'1110.7
2015-Jan-22 20:33N 54°40' W 005°28'1110.8
2015-Jan-22 19:33N 54°49' W 005°38'26 7.9
2015-Jan-22 16:14N 55°12' W 005°58'3 4.1
2015-Jan-22 15:33N 55°15' W 006°00'4 3.6
2015-Jan-22 14:33N 55°18' W 006°04'5 4.6
2015-Jan-22 13:33N 55°19' W 006°12'8 8.3
2015-Jan-22 12:33N 55°18' W 006°26'1010.1
2015-Jan-22 11:33N 55°13' W 006°42'5 4.1
2015-Jan-22 10:26N 55°08' W 006°40'  
2015-Jan-19 23:32N 55°08' W 006°40'0 0.0
2015-Jan-19 14:23N 55°08' W 006°40'0 0.0
2015-Jan-19 12:14N 55°08' W 006°40'0 0.0
2015-Jan-19 11:29N 55°08' W 006°40'  
Track history (hours):
 
Tides and Currents Weather Stations Pressure Air Temp Water Temp Dewpoint Dewpoint Depression Visibility Wind Speed Wind Dir Waves Ship Positions

Iberica Hav

Last reported at 2015-Jan-28 23:17 UTC. Time now 2015-Jan-29 00:13 UTC.
Position N 38°40' W 009°23'.

Length 88 m; draft 3.6 m.

Type: Cargo ship. MMSI: 311034400.

Date/timePositionNaut miles runAvg speedWind from/ knotsBaromVisibWave heightAir tempDewpointWater temp
2015-Jan-28 23:17N 38°40' W 009°23'0 0.0
2015-Jan-28 22:08N 38°40' W 009°23'0 0.0
2015-Jan-28 21:26N 38°40' W 009°23'0 0.0
2015-Jan-28 20:32N 38°40' W 009°23'0 0.0
2015-Jan-28 19:23N 38°40' W 009°23'0 0.0
2015-Jan-28 18:29N 38°40' W 009°23'0 0.0
2015-Jan-28 17:29N 38°40' W 009°23'0 0.0
2015-Jan-28 16:29N 38°40' W 009°23'0 0.0
2015-Jan-28 15:23N 38°40' W 009°23'0 0.0
2015-Jan-28 14:29N 38°40' W 009°23'0 0.0
2015-Jan-28 13:08N 38°40' W 009°23'0 0.0
2015-Jan-28 11:26N 38°40' W 009°23'0 0.0
2015-Jan-28 10:14N 38°40' W 009°23'0 0.0
2015-Jan-28 09:23N 38°40' W 009°23'0 0.0
2015-Jan-28 08:29N 38°40' W 009°23'0 0.0
2015-Jan-28 07:29N 38°40' W 009°23'0 0.0
2015-Jan-28 06:11N 38°40' W 009°23'0 0.0
2015-Jan-28 05:23N 38°40' W 009°23'0 0.0
2015-Jan-28 04:29N 38°40' W 009°23'0 0.0
2015-Jan-28 03:29N 38°40' W 009°23'0 0.0
2015-Jan-28 02:29N 38°40' W 009°23'0 0.0
2015-Jan-28 01:29N 38°40' W 009°23'0 0.0
2015-Jan-28 00:29N 38°40' W 009°23'1 0.6
2015-Jan-27 23:33N 38°40' W 009°24'8 7.7
2015-Jan-27 22:33N 38°37' W 009°33'8 7.8
2015-Jan-27 21:33N 38°36' W 009°43'8 7.7
2015-Jan-27 20:33N 38°36' W 009°53'  
2015-Jan-23 18:26N 51°58' W 006°16'5 6.2
2015-Jan-23 17:33N 52°03' W 006°14'7 7.1
2015-Jan-23 16:33N 52°10' W 006°09'9 8.9
2015-Jan-23 15:33N 52°18' W 006°05'10 9.7
2015-Jan-23 14:33N 52°28' W 006°01'115 7.2
2015-Jan-22 22:31N 54°20' W 005°23'9 9.6
2015-Jan-22 21:33N 54°29' W 005°24'1110.7
2015-Jan-22 20:33N 54°40' W 005°28'1110.8
2015-Jan-22 19:33N 54°49' W 005°38'26 7.9
2015-Jan-22 16:14N 55°12' W 005°58'3 4.1
2015-Jan-22 15:33N 55°15' W 006°00'4 3.6
2015-Jan-22 14:33N 55°18' W 006°04'5 4.6
2015-Jan-22 13:33N 55°19' W 006°12'8 8.3
2015-Jan-22 12:33N 55°18' W 006°26'1010.1
2015-Jan-22 11:33N 55°13' W 006°42'5 4.1
2015-Jan-22 10:26N 55°08' W 006°40'  
2015-Jan-19 23:32N 55°08' W 006°40'0 0.0
2015-Jan-19 14:23N 55°08' W 006°40'0 0.0
2015-Jan-19 12:14N 55°08' W 006°40'0 0.0
2015-Jan-19 11:29N 55°08' W 006°40'  

Dump ship's entire track history